Time;durP1;ratioP1;P1;durP2;ratioP2;P2;SDS_P1;SDS_P2;PMS_P1;PMS_P2;Temp;Humidity;BMP_temperature;BMP_pressure;BME280_temperature;BME280_humidity;BME280_pressure;Samples;Min_cycle;Max_cycle;Signal;HPM_P1;HPM_P2
2023/10/09 00:01:13;;;;;;;9.23;5.60;;;;;;;;;;5093867;28;20488;-62
2023/10/09 00:03:39;;;;;;;9.80;6.03;;;;;;;;;;5093750;28;20747;-64
2023/10/09 00:06:04;;;;;;;10.82;5.60;;;;;;;;;;5093035;28;20081;-63
2023/10/09 00:08:30;;;;;;;9.88;5.80;;;;;;;;;;5092715;28;20051;-64
2023/10/09 00:10:57;;;;;;;9.60;5.78;;;;;;;;;;5093524;28;20046;-63
2023/10/09 00:13:31;;;;;;;9.55;5.97;;;;;;;;;;5093806;28;20024;-62
2023/10/09 00:16:01;;;;;;;9.40;6.22;;;;;;;;;;5093425;28;20475;-64
2023/10/09 00:18:29;;;;;;;10.98;5.82;;;;;;;;;;5083310;28;20078;-64
2023/10/09 00:21:00;;;;;;;8.77;5.47;;;;;;;;;;5043540;28;20024;-65
2023/10/09 00:23:25;;;;;;;10.02;5.90;;;;;;;;;;5044776;28;20032;-64
2023/10/09 00:26:11;;;;;;;9.15;6.25;;;;;;;;;;5061172;28;20076;-64
2023/10/09 00:28:37;;;;;;;11.05;6.20;;;;;;;;;;5093280;28;20055;-64
2023/10/09 00:31:06;;;;;;;8.00;5.70;;;;;;;;;;5092241;28;20036;-64
2023/10/09 00:33:32;;;;;;;8.65;5.30;;;;;;;;;;5093164;28;20020;-64
2023/10/09 00:36:06;;;;;;;10.45;6.50;;;;;;;;;;5093251;28;20024;-64
2023/10/09 00:38:34;;;;;;;;;;;;;;;;;;5094047;28;20024;-63
2023/10/09 00:41:42;;;;;;;9.77;5.07;;;;;;;;;;5088515;28;19916;-64
2023/10/09 00:43:51;;;;;;;8.77;5.82;;;;;;;;;;5081421;28;20032;-64
2023/10/09 00:48:47;;;;;;;9.55;4.93;;;;;;;;;;5093171;28;20051;-64
2023/10/09 00:51:19;;;;;;;9.05;5.35;;;;;;;;;;5092947;28;20024;-64
2023/10/09 00:53:45;;;;;;;10.38;6.47;;;;;;;;;;5093013;28;20158;-65
2023/10/09 00:56:19;;;;;;;10.85;5.90;;;;;;;;;;5091705;28;20029;-65
2023/10/09 00:58:46;;;;;;;11.70;5.43;;;;;;;;;;5091592;28;20462;-65
2023/10/09 01:01:15;;;;;;;8.15;5.20;;;;;;;;;;5092382;28;20475;-65
2023/10/09 01:03:41;;;;;;;9.35;4.97;;;;;;;;;;5093120;28;20020;-63
2023/10/09 01:11:09;;;;;;;8.90;4.97;;;;;;;;;;5088556;28;20089;-63
2023/10/09 01:16:16;;;;;;;7.93;5.72;;;;;;;;;;5092953;28;20040;-64
2023/10/09 01:18:43;;;;;;;10.88;5.65;;;;;;;;;;5089317;28;20017;-63
2023/10/09 01:21:12;;;;;;;10.38;5.57;;;;;;;;;;5081067;28;20134;-63
2023/10/09 01:23:42;;;;;;;8.95;6.00;;;;;;;;;;5043778;28;20028;-64
2023/10/09 01:26:08;;;;;;;9.00;5.57;;;;;;;;;;5044194;28;20036;-64
2023/10/09 01:28:33;;;;;;;10.43;6.13;;;;;;;;;;5054529;28;20044;-63
2023/10/09 01:31:00;;;;;;;10.38;6.38;;;;;;;;;;5091479;28;20093;-63
2023/10/09 01:33:27;;;;;;;8.27;5.10;;;;;;;;;;5091441;28;20012;-63
2023/10/09 01:35:58;;;;;;;11.70;6.15;;;;;;;;;;5090825;28;20089;-63
2023/10/09 01:38:47;;;;;;;9.45;5.68;;;;;;;;;;5063716;28;20131;-63
2023/10/09 01:41:19;;;;;;;9.30;5.88;;;;;;;;;;5069586;28;20089;-63
2023/10/09 01:43:44;;;;;;;10.80;6.00;;;;;;;;;;5088197;28;20035;-63
2023/10/09 01:46:11;;;;;;;10.00;5.57;;;;;;;;;;5092063;28;20016;-63
2023/10/09 01:48:39;;;;;;;8.68;5.63;;;;;;;;;;5088979;28;20016;-63
2023/10/09 01:51:05;;;;;;;8.10;5.43;;;;;;;;;;5087522;28;20031;-63
2023/10/09 01:53:30;;;;;;;9.02;6.35;;;;;;;;;;5091608;28;20020;-63
2023/10/09 01:55:59;;;;;;;7.80;5.32;;;;;;;;;;5092452;28;20032;-63
2023/10/09 01:58:27;;;;;;;10.15;5.88;;;;;;;;;;5073544;28;20027;-63
2023/10/09 02:00:56;;;;;;;9.77;5.50;;;;;;;;;;5079805;28;20103;-63
2023/10/09 02:03:25;;;;;;;8.63;5.80;;;;;;;;;;5091404;28;20024;-64
2023/10/09 02:05:51;;;;;;;8.10;5.70;;;;;;;;;;5092270;28;20020;-64
2023/10/09 02:08:35;;;;;;;9.25;5.20;;;;;;;;;;5090652;28;20031;-64
2023/10/09 02:11:02;;;;;;;9.60;5.65;;;;;;;;;;5082437;28;20048;-64
2023/10/09 02:13:31;;;;;;;8.75;5.85;;;;;;;;;;5091257;28;20020;-63
2023/10/09 02:16:13;;;;;;;8.75;5.38;;;;;;;;;;5084462;28;20031;-64
2023/10/09 02:18:56;;;;;;;9.13;4.85;;;;;;;;;;5092096;28;20035;-64
2023/10/09 02:21:33;;;;;;;7.88;4.78;;;;;;;;;;5080252;28;20032;-64
2023/10/09 02:24:04;;;;;;;8.23;5.15;;;;;;;;;;5091462;28;20028;-64
2023/10/09 02:27:12;;;;;;;9.25;5.60;;;;;;;;;;5082120;28;20078;-64
2023/10/09 02:29:18;;;;;;;10.15;5.70;;;;;;;;;;5082130;28;20028;-64
2023/10/09 02:31:47;;;;;;;9.30;5.73;;;;;;;;;;5091526;28;20565;-64
2023/10/09 02:34:15;;;;;;;8.02;5.32;;;;;;;;;;5091207;28;20598;-64
2023/10/09 02:36:48;;;;;;;8.30;5.57;;;;;;;;;;5091350;28;20482;-64
2023/10/09 02:39:22;;;;;;;8.60;5.47;;;;;;;;;;5073409;28;20710;-64
2023/10/09 02:41:49;;;;;;;9.13;5.45;;;;;;;;;;5087481;28;20036;-63
2023/10/09 02:44:15;;;;;;;8.55;6.03;;;;;;;;;;5091249;28;20035;-63
2023/10/09 02:46:40;;;;;;;8.90;5.50;;;;;;;;;;5090757;28;20024;-64
2023/10/09 02:49:06;;;;;;;9.27;5.57;;;;;;;;;;5082041;28;20032;-63
2023/10/09 02:51:41;;;;;;;9.40;5.53;;;;;;;;;;5090418;28;20359;-64
2023/10/09 02:54:18;;;;;;;8.73;5.38;;;;;;;;;;5091035;28;20383;-64
2023/10/09 02:57:05;;;;;;;8.63;4.88;;;;;;;;;;5091014;28;20017;-64
2023/10/09 02:59:31;;;;;;;9.50;6.03;;;;;;;;;;5090753;28;20032;-64
2023/10/09 03:01:59;;;;;;;10.43;6.10;;;;;;;;;;5091280;28;20027;-64
2023/10/09 03:04:30;;;;;;;11.75;6.00;;;;;;;;;;5086070;28;20024;-64
2023/10/09 03:06:57;;;;;;;9.45;5.85;;;;;;;;;;5039630;28;20031;-64
2023/10/09 03:09:28;;;;;;;9.50;5.95;;;;;;;;;;5028893;28;20089;-64
2023/10/09 03:12:00;;;;;;;9.85;5.78;;;;;;;;;;5041605;28;20036;-64
2023/10/09 03:14:26;;;;;;;7.32;5.90;;;;;;;;;;5040939;28;20028;-64
2023/10/09 03:16:52;;;;;;;8.57;6.32;;;;;;;;;;5042382;28;20028;-64
2023/10/09 03:19:17;;;;;;;10.07;5.78;;;;;;;;;;5036323;28;20133;-64
2023/10/09 03:21:42;;;;;;;10.15;5.65;;;;;;;;;;5035586;28;20939;-64
2023/10/09 03:24:08;;;;;;;9.27;5.97;;;;;;;;;;5036877;28;20020;-64
2023/10/09 03:26:33;;;;;;;11.20;5.57;;;;;;;;;;5046105;28;20313;-64
2023/10/09 03:29:06;;;;;;;8.23;6.10;;;;;;;;;;5046898;28;20191;-63
2023/10/09 03:31:31;;;;;;;10.00;6.13;;;;;;;;;;5046492;28;20032;-64
2023/10/09 03:33:57;;;;;;;9.77;6.20;;;;;;;;;;5043896;28;20055;-64
2023/10/09 03:36:26;;;;;;;9.38;6.25;;;;;;;;;;5036765;28;20023;-64
2023/10/09 03:38:54;;;;;;;9.20;5.85;;;;;;;;;;5046073;28;20020;-64
2023/10/09 03:41:20;;;;;;;11.20;6.30;;;;;;;;;;5040884;28;20861;-64
2023/10/09 03:43:46;;;;;;;9.93;6.05;;;;;;;;;;5057475;28;20027;-64
2023/10/09 03:46:22;;;;;;;10.10;6.60;;;;;;;;;;5059520;28;20562;-64
2023/10/09 03:48:47;;;;;;;10.25;6.47;;;;;;;;;;5040149;28;20036;-64
2023/10/09 03:51:15;;;;;;;11.48;6.75;;;;;;;;;;5044602;28;20031;-64
2023/10/09 03:53:40;;;;;;;9.48;6.10;;;;;;;;;;5043675;28;20096;-64
2023/10/09 03:56:13;;;;;;;9.73;5.68;;;;;;;;;;5043871;28;20032;-64
2023/10/09 03:58:39;;;;;;;12.02;6.30;;;;;;;;;;5044328;28;20028;-64
2023/10/09 04:01:10;;;;;;;9.63;5.93;;;;;;;;;;5040126;28;20052;-64
2023/10/09 04:03:36;;;;;;;7.72;6.00;;;;;;;;;;5083307;28;20062;-64
2023/10/09 04:06:02;;;;;;;11.55;6.03;;;;;;;;;;5093056;28;20103;-64
2023/10/09 04:08:30;;;;;;;10.05;6.57;;;;;;;;;;5086282;28;20522;-64
2023/10/09 04:11:01;;;;;;;10.30;6.15;;;;;;;;;;5091652;28;20524;-64
2023/10/09 04:13:33;;;;;;;9.65;5.65;;;;;;;;;;5063377;28;20027;-64
2023/10/09 04:16:03;;;;;;;11.10;6.78;;;;;;;;;;5090009;28;20031;-64
2023/10/09 04:18:32;;;;;;;10.13;6.60;;;;;;;;;;5082613;28;20024;-63
2023/10/09 04:21:18;;;;;;;12.30;6.25;;;;;;;;;;5082870;28;20015;-64
2023/10/09 04:26:44;;;;;;;12.30;6.97;;;;;;;;;;5055725;28;20020;-64
2023/10/09 04:29:37;;;;;;;10.73;7.60;;;;;;;;;;5093090;28;20028;-64
2023/10/09 04:32:07;;;;;;;10.98;6.68;;;;;;;;;;5082590;28;20096;-64
2023/10/09 04:34:35;;;;;;;10.95;7.15;;;;;;;;;;5078732;28;20025;-65
2023/10/09 04:37:00;;;;;;;11.00;6.75;;;;;;;;;;5084808;28;20024;-64
2023/10/09 04:42:19;;;;;;;10.13;6.80;;;;;;;;;;5092258;28;20061;-64
2023/10/09 04:44:39;;;;;;;12.23;7.80;;;;;;;;;;5083908;28;20040;-63
2023/10/09 04:57:38;;;;;;;10.10;6.47;;;;;;;;;;5043564;28;20039;-64
2023/10/09 05:00:22;;;;;;;9.82;6.75;;;;;;;;;;5038277;28;20868;-64
2023/10/09 05:02:54;;;;;;;11.50;6.70;;;;;;;;;;5072140;28;20382;-65
2023/10/09 05:08:49;;;;;;;14.15;7.75;;;;;;;;;;5077592;28;20891;-64
2023/10/09 05:16:04;;;;;;;11.73;7.45;;;;;;;;;;5091970;28;20086;-64
2023/10/09 05:18:36;;;;;;;13.85;7.90;;;;;;;;;;5092322;28;20470;-64
2023/10/09 05:21:35;;;;;;;12.45;7.65;;;;;;;;;;5085713;28;20026;-64
2023/10/09 05:24:15;;;;;;;13.88;8.13;;;;;;;;;;5092534;28;20390;-64
2023/10/09 05:26:51;;;;;;;12.18;8.05;;;;;;;;;;5089423;28;20458;-64
2023/10/09 05:37:32;;;;;;;11.10;7.63;;;;;;;;;;5084581;28;20032;-63
2023/10/09 05:47:56;;;;;;;10.88;7.30;;;;;;;;;;5084060;28;20047;-63
2023/10/09 06:08:27;;;;;;;12.68;7.93;;;;;;;;;;5090763;28;20054;-64
2023/10/09 06:13:45;;;;;;;13.23;8.05;;;;;;;;;;5084801;28;20124;-64
2023/10/09 06:16:29;;;;;;;14.40;8.10;;;;;;;;;;5090224;28;20073;-64
2023/10/09 06:19:07;;;;;;;15.63;7.43;;;;;;;;;;5091168;28;20024;-64
2023/10/09 06:21:47;;;;;;;11.57;6.95;;;;;;;;;;5090542;28;20475;-64
2023/10/09 06:24:15;;;;;;;12.52;8.45;;;;;;;;;;5090866;28;20382;-65
2023/10/09 06:26:51;;;;;;;13.90;9.77;;;;;;;;;;5090598;28;20024;-64
2023/10/09 06:29:33;;;;;;;11.05;7.47;;;;;;;;;;5091341;28;20016;-64
2023/10/09 06:31:59;;;;;;;12.45;7.97;;;;;;;;;;5090361;28;20107;-64
2023/10/09 06:34:32;;;;;;;12.63;8.05;;;;;;;;;;5082410;28;20419;-64
2023/10/09 06:37:17;;;;;;;15.33;8.60;;;;;;;;;;5084551;28;20073;-64
2023/10/09 06:40:23;;;;;;;12.32;7.68;;;;;;;;;;5090150;28;20478;-64
2023/10/09 06:48:09;;;;;;;11.80;7.65;;;;;;;;;;5089875;28;20036;-64
2023/10/09 06:53:19;;;;;;;13.90;7.88;;;;;;;;;;5078214;28;20042;-64
2023/10/09 06:56:05;;;;;;;13.18;7.38;;;;;;;;;;5091738;28;20250;-64
2023/10/09 06:58:41;;;;;;;11.25;7.50;;;;;;;;;;5085790;28;20424;-65
2023/10/09 07:01:39;;;;;;;10.23;7.03;;;;;;;;;;5093925;28;20024;-64
2023/10/09 07:04:45;;;;;;;13.85;6.88;;;;;;;;;;5085056;28;20032;-65
2023/10/09 07:07:09;;;;;;;12.98;7.53;;;;;;;;;;5062784;28;20036;-65
2023/10/09 07:10:28;;;;;;;12.70;7.65;;;;;;;;;;5045938;28;20024;-64
2023/10/09 07:12:32;;;;;;;13.83;8.03;;;;;;;;;;5088655;28;20040;-64
2023/10/09 07:20:12;;;;;;;13.05;7.75;;;;;;;;;;5093065;28;19969;-65
2023/10/09 07:22:52;;;;;;;13.02;7.30;;;;;;;;;;5093907;28;20051;-64
2023/10/09 07:26:00;;;;;;;17.25;8.18;;;;;;;;;;5092035;28;20028;-63
2023/10/09 07:28:29;;;;;;;15.52;8.10;;;;;;;;;;5077825;28;20475;-64
2023/10/09 07:30:57;;;;;;;11.52;8.25;;;;;;;;;;5082615;28;20869;-65
2023/10/09 07:33:31;;;;;;;12.10;7.25;;;;;;;;;;5044576;28;20164;-65
2023/10/09 07:35:59;;;;;;;12.75;7.55;;;;;;;;;;5046660;28;20420;-65
2023/10/09 07:38:35;;;;;;;15.15;8.30;;;;;;;;;;5079712;28;20019;-65
2023/10/09 07:43:38;;;;;;;13.05;7.82;;;;;;;;;;5093071;28;20394;-64
2023/10/09 07:48:40;;;;;;;13.10;9.00;;;;;;;;;;5090295;28;20032;-64
2023/10/09 07:51:13;;;;;;;12.35;7.97;;;;;;;;;;5085917;28;20020;-64
2023/10/09 07:53:44;;;;;;;13.38;8.48;;;;;;;;;;5078842;28;20024;-65
2023/10/09 07:56:13;;;;;;;13.77;7.97;;;;;;;;;;5088570;28;20035;-65
2023/10/09 07:58:48;;;;;;;13.73;8.82;;;;;;;;;;5071618;28;20035;-65
2023/10/09 08:01:22;;;;;;;17.60;9.13;;;;;;;;;;5093141;28;20039;-65
2023/10/09 08:03:56;;;;;;;14.57;8.73;;;;;;;;;;5091064;28;20032;-65
2023/10/09 08:17:10;;;;;;;13.15;9.50;;;;;;;;;;5072545;28;20062;-63
2023/10/09 08:19:51;;;;;;;16.58;10.48;;;;;;;;;;5093117;28;20059;-64
2023/10/09 08:22:37;;;;;;;15.43;10.15;;;;;;;;;;5090927;28;20028;-64
2023/10/09 08:25:02;;;;;;;16.63;11.15;;;;;;;;;;5091421;28;20044;-64
2023/10/09 08:30:14;;;;;;;15.75;10.32;;;;;;;;;;5044544;28;20178;-64
2023/10/09 08:32:40;;;;;;;15.57;10.23;;;;;;;;;;5046296;28;20036;-64
2023/10/09 08:35:19;;;;;;;16.40;10.45;;;;;;;;;;5043815;28;20056;-64
2023/10/09 08:37:47;;;;;;;14.88;9.65;;;;;;;;;;5042155;28;20778;-64
2023/10/09 08:40:13;;;;;;;16.33;9.90;;;;;;;;;;5047413;28;20040;-64
2023/10/09 08:42:42;;;;;;;14.70;9.88;;;;;;;;;;5091732;28;20465;-64
2023/10/09 08:45:07;;;;;;;14.25;10.57;;;;;;;;;;5091542;28;20104;-63
2023/10/09 08:47:33;;;;;;;15.43;9.27;;;;;;;;;;5091641;28;20118;-63
2023/10/09 08:49:59;;;;;;;17.05;8.95;;;;;;;;;;5087735;28;20024;-63
2023/10/09 08:52:25;;;;;;;14.23;8.80;;;;;;;;;;5089743;28;20032;-64
2023/10/09 08:54:50;;;;;;;17.05;9.63;;;;;;;;;;5080536;28;20027;-63
2023/10/09 08:57:18;;;;;;;13.60;9.83;;;;;;;;;;5089222;28;20073;-64
2023/10/09 08:59:44;;;;;;;12.75;8.98;;;;;;;;;;5088225;28;20274;-64
2023/10/09 09:02:11;;;;;;;13.38;7.72;;;;;;;;;;5087793;28;20364;-64
2023/10/09 09:04:40;;;;;;;14.63;9.10;;;;;;;;;;5091161;28;20371;-64
2023/10/09 09:07:06;;;;;;;13.35;8.85;;;;;;;;;;5090414;28;20106;-64
2023/10/09 09:09:33;;;;;;;15.10;8.77;;;;;;;;;;5090932;28;20019;-64
2023/10/09 09:11:59;;;;;;;13.95;8.52;;;;;;;;;;5090249;28;20018;-65
2023/10/09 09:14:36;;;;;;;11.43;8.07;;;;;;;;;;5040078;28;20025;-65
2023/10/09 09:17:04;;;;;;;11.27;8.68;;;;;;;;;;5034858;28;20025;-65
2023/10/09 09:19:32;;;;;;;15.88;9.18;;;;;;;;;;5035854;28;20024;-64
2023/10/09 09:22:11;;;;;;;15.93;8.95;;;;;;;;;;5060196;28;20081;-64
2023/10/09 09:24:36;;;;;;;13.43;8.88;;;;;;;;;;5091153;28;20429;-63
2023/10/09 09:27:09;;;;;;;12.93;8.35;;;;;;;;;;5091070;28;20020;-64
2023/10/09 09:29:36;;;;;;;17.48;9.18;;;;;;;;;;5087546;28;20546;-64
2023/10/09 09:32:15;;;;;;;14.45;8.35;;;;;;;;;;5088936;28;20066;-64
2023/10/09 09:34:54;;;;;;;12.13;7.82;;;;;;;;;;5090666;28;20445;-64
2023/10/09 09:37:50;;;;;;;13.48;9.35;;;;;;;;;;5089554;28;20028;-65
2023/10/09 09:42:56;;;;;;;14.43;8.13;;;;;;;;;;5089413;28;20508;-64
2023/10/09 09:45:24;;;;;;;11.02;7.88;;;;;;;;;;5088466;28;20027;-65
2023/10/09 09:47:54;;;;;;;13.15;7.93;;;;;;;;;;5087930;28;20051;-65
2023/10/09 09:50:28;;;;;;;10.77;7.85;;;;;;;;;;5078560;28;20016;-65
2023/10/09 09:52:53;;;;;;;;;;;;;;;;;;5090580;28;20100;-65
2023/10/09 09:55:22;;;;;;;10.98;8.00;;;;;;;;;;5090839;28;19911;-65
2023/10/09 09:57:51;;;;;;;11.07;7.47;;;;;;;;;;5088590;28;20027;-65
2023/10/09 10:00:29;;;;;;;11.20;7.30;;;;;;;;;;5079329;28;20477;-65
2023/10/09 10:02:57;;;;;;;13.23;8.00;;;;;;;;;;5089651;28;20024;-65
2023/10/09 10:05:27;;;;;;;11.18;7.88;;;;;;;;;;5090397;28;20044;-65
2023/10/09 10:07:55;;;;;;;10.80;7.78;;;;;;;;;;5087934;28;20024;-65
2023/10/09 10:10:53;;;;;;;13.20;8.25;;;;;;;;;;5091081;28;20027;-64
2023/10/09 10:13:37;;;;;;;13.32;7.35;;;;;;;;;;5090235;28;20046;-64
2023/10/09 10:16:11;;;;;;;10.77;7.67;;;;;;;;;;5090876;28;20131;-64
2023/10/09 10:21:49;;;;;;;11.43;6.90;;;;;;;;;;5077119;28;20024;-64
2023/10/09 10:27:27;;;;;;;13.90;7.18;;;;;;;;;;5079302;28;20092;-64
2023/10/09 10:30:14;;;;;;;10.88;7.05;;;;;;;;;;5084121;28;20031;-64
2023/10/09 10:32:51;;;;;;;9.25;6.00;;;;;;;;;;5086253;28;20112;-65
2023/10/09 10:35:16;;;;;;;10.73;6.38;;;;;;;;;;5091031;28;20026;-64
2023/10/09 10:38:24;;;;;;;10.25;6.22;;;;;;;;;;5086640;28;20028;-64
2023/10/09 10:40:40;;;;;;;10.55;6.63;;;;;;;;;;5076795;28;20044;-65
2023/10/09 10:43:31;;;;;;;11.45;7.20;;;;;;;;;;5077409;28;20492;-65
2023/10/09 10:45:51;;;;;;;12.80;6.38;;;;;;;;;;5089754;28;20100;-66
2023/10/09 10:48:22;;;;;;;12.43;6.70;;;;;;;;;;5088192;28;20459;-64
2023/10/09 10:50:57;;;;;;;11.43;6.60;;;;;;;;;;5071156;28;20024;-64
2023/10/09 10:53:26;;;;;;;10.77;6.28;;;;;;;;;;5090040;28;20058;-63
2023/10/09 10:56:17;;;;;;;13.77;6.30;;;;;;;;;;5085174;28;20043;-64
2023/10/09 11:01:22;;;;;;;9.20;6.15;;;;;;;;;;5086472;28;20189;-64
2023/10/09 11:03:55;;;;;;;12.38;7.25;;;;;;;;;;5083355;28;20043;-63
2023/10/09 11:06:41;;;;;;;11.07;6.07;;;;;;;;;;5079924;28;20094;-64
2023/10/09 11:09:23;;;;;;;9.57;5.63;;;;;;;;;;5073824;28;20020;-64
2023/10/09 11:11:55;;;;;;;13.60;6.57;;;;;;;;;;5089065;28;20119;-64
2023/10/09 11:14:23;;;;;;;9.32;5.68;;;;;;;;;;5091255;28;20081;-64
2023/10/09 11:16:49;;;;;;;12.27;6.18;;;;;;;;;;5076960;28;20039;-64
2023/10/09 11:22:24;;;;;;;7.80;5.03;;;;;;;;;;5089212;28;20065;-64
2023/10/09 11:24:46;;;;;;;9.90;6.07;;;;;;;;;;5078524;28;20036;-64
2023/10/09 11:27:18;;;;;;;11.88;5.68;;;;;;;;;;5087551;28;20111;-64
2023/10/09 11:29:52;;;;;;;7.95;4.93;;;;;;;;;;5087263;28;20024;-65
2023/10/09 11:32:18;;;;;;;8.75;5.32;;;;;;;;;;5086338;28;20021;-69
2023/10/09 11:34:54;;;;;;;10.38;5.50;;;;;;;;;;5088147;28;20102;-64
2023/10/09 11:39:55;;;;;;;9.32;6.07;;;;;;;;;;5088671;28;20028;-64
2023/10/09 11:45:19;;;;;;;7.57;5.50;;;;;;;;;;5076751;28;20031;-64
2023/10/09 11:47:57;;;;;;;11.93;6.40;;;;;;;;;;5038142;28;20141;-64
2023/10/09 11:50:51;;;;;;;11.07;6.70;;;;;;;;;;5049515;28;20020;-65
2023/10/09 11:53:34;;;;;;;8.93;5.63;;;;;;;;;;5046101;28;20051;-63
2023/10/09 11:56:00;;;;;;;10.70;6.10;;;;;;;;;;5040925;28;20025;-64
2023/10/09 11:58:25;;;;;;;9.27;5.60;;;;;;;;;;5044713;28;20947;-64
2023/10/09 12:00:59;;;;;;;10.00;6.15;;;;;;;;;;5039099;28;20944;-64
2023/10/09 12:03:31;;;;;;;9.60;6.55;;;;;;;;;;5046228;28;20033;-64
2023/10/09 12:05:57;;;;;;;9.80;5.90;;;;;;;;;;5036712;28;20055;-64
2023/10/09 12:08:28;;;;;;;9.57;5.68;;;;;;;;;;5037409;28;20028;-63
2023/10/09 12:10:57;;;;;;;17.95;6.80;;;;;;;;;;5041700;28;20146;-64
2023/10/09 12:13:23;;;;;;;11.68;6.30;;;;;;;;;;5044129;28;20130;-65
2023/10/09 12:15:49;;;;;;;9.90;5.68;;;;;;;;;;5037562;28;20097;-64
2023/10/09 12:18:18;;;;;;;11.07;5.95;;;;;;;;;;5051987;28;20038;-64
2023/10/09 12:20:50;;;;;;;8.25;5.10;;;;;;;;;;5090754;28;20481;-64
2023/10/09 12:23:16;;;;;;;9.82;5.72;;;;;;;;;;5072676;28;20529;-64
2023/10/09 12:25:44;;;;;;;8.27;5.18;;;;;;;;;;5068833;28;20028;-64
2023/10/09 12:28:12;;;;;;;8.93;5.85;;;;;;;;;;5090375;28;20081;-64
2023/10/09 12:30:39;;;;;;;8.18;4.95;;;;;;;;;;5086952;28;20029;-64
2023/10/09 12:33:07;;;;;;;7.88;5.38;;;;;;;;;;5089344;28;20059;-64
2023/10/09 12:35:35;;;;;;;9.23;5.63;;;;;;;;;;5092419;28;20360;-64
2023/10/09 12:38:01;;;;;;;9.20;5.43;;;;;;;;;;5091798;28;20080;-64
2023/10/09 12:40:30;;;;;;;8.13;5.15;;;;;;;;;;5091544;28;20024;-64
2023/10/09 12:42:58;;;;;;;8.57;5.30;;;;;;;;;;5091440;28;20514;-64
2023/10/09 12:45:27;;;;;;;10.27;5.40;;;;;;;;;;5085939;28;20489;-64
2023/10/09 12:48:03;;;;;;;8.43;5.35;;;;;;;;;;5084418;28;20378;-64
2023/10/09 12:50:33;;;;;;;11.90;5.70;;;;;;;;;;5080828;28;20040;-64
2023/10/09 12:53:07;;;;;;;7.57;5.45;;;;;;;;;;5088345;28;20051;-65
2023/10/09 12:55:37;;;;;;;9.02;5.22;;;;;;;;;;5092018;28;20024;-65
2023/10/09 12:58:06;;;;;;;7.07;5.47;;;;;;;;;;5090366;28;20028;-65
2023/10/09 13:00:32;;;;;;;9.45;6.07;;;;;;;;;;5091077;28;20069;-65
2023/10/09 13:03:00;;;;;;;8.02;5.22;;;;;;;;;;5078016;28;20024;-65
2023/10/09 13:05:26;;;;;;;8.35;5.38;;;;;;;;;;5089022;28;20059;-64
2023/10/09 13:07:56;;;;;;;9.02;5.82;;;;;;;;;;5091716;28;20081;-64
2023/10/09 13:10:24;;;;;;;8.80;5.55;;;;;;;;;;5088949;28;20428;-64
2023/10/09 13:12:55;;;;;;;8.32;5.00;;;;;;;;;;5089741;28;20036;-64
2023/10/09 13:15:21;;;;;;;9.73;5.72;;;;;;;;;;5091606;28;20024;-64
2023/10/09 13:17:47;;;;;;;10.77;5.65;;;;;;;;;;5089243;28;20035;-65
2023/10/09 13:20:15;;;;;;;8.05;5.68;;;;;;;;;;5090307;28;20031;-64
2023/10/09 13:22:46;;;;;;;11.38;5.45;;;;;;;;;;5089330;28;20088;-65
2023/10/09 13:25:25;;;;;;;10.30;5.35;;;;;;;;;;5090247;28;20047;-65
2023/10/09 13:27:50;;;;;;;10.43;5.38;;;;;;;;;;5090387;28;20039;-65
2023/10/09 13:30:23;;;;;;;8.50;5.43;;;;;;;;;;5089528;28;20024;-65
2023/10/09 13:32:51;;;;;;;10.80;5.28;;;;;;;;;;5090013;28;20320;-65
2023/10/09 13:35:17;;;;;;;9.57;5.60;;;;;;;;;;5091036;28;20531;-64
2023/10/09 13:37:44;;;;;;;10.10;6.05;;;;;;;;;;5089517;28;20125;-65
2023/10/09 13:40:11;;;;;;;9.77;5.05;;;;;;;;;;5091506;28;20028;-65
2023/10/09 13:42:37;;;;;;;7.45;5.13;;;;;;;;;;5088805;28;20039;-65
2023/10/09 13:45:06;;;;;;;10.25;5.60;;;;;;;;;;5088106;28;20028;-64
2023/10/09 13:47:32;;;;;;;10.95;5.63;;;;;;;;;;5091219;28;20028;-65
2023/10/09 13:49:59;;;;;;;10.23;5.78;;;;;;;;;;5077965;28;20028;-65
2023/10/09 13:52:24;;;;;;;8.45;5.63;;;;;;;;;;5091210;28;20024;-65
2023/10/09 13:54:50;;;;;;;8.88;5.80;;;;;;;;;;5088266;28;20069;-65
2023/10/09 13:57:15;;;;;;;13.00;6.07;;;;;;;;;;5080554;28;20020;-64
2023/10/09 13:59:49;;;;;;;9.35;5.70;;;;;;;;;;5086789;28;20024;-65
2023/10/09 14:02:18;;;;;;;8.45;5.10;;;;;;;;;;5089627;28;20114;-65
2023/10/09 14:04:44;;;;;;;10.57;5.20;;;;;;;;;;5089921;28;20032;-65
2023/10/09 14:07:09;;;;;;;10.90;6.53;;;;;;;;;;5089180;28;20034;-65
2023/10/09 14:09:38;;;;;;;11.10;5.90;;;;;;;;;;5090681;28;20031;-65
2023/10/09 14:12:08;;;;;;;7.90;4.85;;;;;;;;;;5090548;28;20052;-65
2023/10/09 14:14:49;;;;;;;10.80;6.20;;;;;;;;;;5090577;28;20055;-62
2023/10/09 14:17:14;;;;;;;13.38;6.13;;;;;;;;;;5087548;28;20115;-64
2023/10/09 14:19:49;;;;;;;9.60;5.10;;;;;;;;;;5090828;28;20099;-64
2023/10/09 14:22:15;;;;;;;10.40;6.68;;;;;;;;;;5089517;28;20055;-64
2023/10/09 14:24:48;;;;;;;8.18;5.57;;;;;;;;;;5070829;28;20405;-64
2023/10/09 14:27:20;;;;;;;9.25;5.85;;;;;;;;;;5089315;28;20028;-64
2023/10/09 14:29:45;;;;;;;10.35;6.68;;;;;;;;;;5090196;28;20038;-64
2023/10/09 14:32:13;;;;;;;10.05;5.82;;;;;;;;;;5085095;28;20126;-65
2023/10/09 14:34:42;;;;;;;9.70;5.93;;;;;;;;;;5089581;28;20024;-65
2023/10/09 14:37:10;;;;;;;11.68;6.45;;;;;;;;;;5088820;28;20039;-65
2023/10/09 14:39:36;;;;;;;13.30;6.13;;;;;;;;;;5090163;28;20368;-65
2023/10/09 14:42:09;;;;;;;10.88;5.90;;;;;;;;;;5089915;28;20053;-65
2023/10/09 14:44:37;;;;;;;9.25;6.65;;;;;;;;;;5089934;28;20115;-65
2023/10/09 14:47:05;;;;;;;10.57;6.22;;;;;;;;;;5089629;28;20061;-65
2023/10/09 14:49:34;;;;;;;9.77;6.40;;;;;;;;;;5077990;28;20078;-65
2023/10/09 14:52:00;;;;;;;9.75;6.10;;;;;;;;;;5089770;28;20362;-65
2023/10/09 14:54:26;;;;;;;9.95;6.40;;;;;;;;;;5089734;28;20031;-65
2023/10/09 14:56:54;;;;;;;12.15;6.60;;;;;;;;;;5089671;28;20035;-65
2023/10/09 14:59:22;;;;;;;9.02;6.03;;;;;;;;;;5086810;28;20036;-65
2023/10/09 15:01:48;;;;;;;8.80;5.25;;;;;;;;;;5088723;28;20028;-65
2023/10/09 15:04:14;;;;;;;8.90;5.68;;;;;;;;;;5089907;28;20032;-65
2023/10/09 15:06:40;;;;;;;9.73;5.68;;;;;;;;;;5078070;28;20031;-65
2023/10/09 15:09:09;;;;;;;11.07;5.70;;;;;;;;;;5087794;28;20024;-65
2023/10/09 15:11:34;;;;;;;13.80;7.40;;;;;;;;;;5089860;28;20081;-65
2023/10/09 15:13:59;;;;;;;8.68;5.38;;;;;;;;;;5089949;28;20024;-65
2023/10/09 15:16:30;;;;;;;13.02;6.00;;;;;;;;;;5091892;28;20024;-65
2023/10/09 15:18:57;;;;;;;11.63;6.03;;;;;;;;;;5093546;28;20028;-65
2023/10/09 15:21:26;;;;;;;11.13;7.05;;;;;;;;;;5080573;28;20085;-64
2023/10/09 15:23:54;;;;;;;10.23;6.10;;;;;;;;;;5093147;28;20027;-65
2023/10/09 15:26:19;;;;;;;8.90;5.40;;;;;;;;;;5092828;28;20032;-65
2023/10/09 15:28:44;;;;;;;10.20;5.47;;;;;;;;;;5092663;28;20085;-65
2023/10/09 15:31:11;;;;;;;11.68;6.43;;;;;;;;;;5093181;28;20159;-65
2023/10/09 15:33:36;;;;;;;9.98;5.70;;;;;;;;;;5092862;28;20023;-65
2023/10/09 15:36:11;;;;;;;9.13;6.40;;;;;;;;;;5091417;28;20111;-65
2023/10/09 15:38:36;;;;;;;11.20;7.00;;;;;;;;;;5083019;28;20437;-64
2023/10/09 15:41:01;;;;;;;11.07;6.38;;;;;;;;;;5093464;28;20024;-63
2023/10/09 15:43:27;;;;;;;12.25;6.90;;;;;;;;;;5092902;28;20165;-63
2023/10/09 15:45:52;;;;;;;12.03;7.50;;;;;;;;;;5092627;28;20030;-63
2023/10/09 15:48:21;;;;;;;11.30;7.30;;;;;;;;;;5093348;28;20262;-63
2023/10/09 15:50:51;;;;;;;13.00;6.90;;;;;;;;;;5092481;28;20420;-64
2023/10/09 15:53:16;;;;;;;10.35;6.75;;;;;;;;;;5093020;28;20030;-63
2023/10/09 15:55:43;;;;;;;13.40;7.18;;;;;;;;;;5089855;28;20027;-63
2023/10/09 15:58:08;;;;;;;8.23;6.55;;;;;;;;;;5088251;28;20051;-63
2023/10/09 16:00:34;;;;;;;14.23;6.72;;;;;;;;;;5093832;28;20167;-63
2023/10/09 16:03:00;;;;;;;11.23;7.10;;;;;;;;;;5093323;28;20032;-65
2023/10/09 16:05:25;;;;;;;13.40;7.32;;;;;;;;;;5090262;28;20032;-63
2023/10/09 16:07:52;;;;;;;11.00;6.80;;;;;;;;;;5087226;28;20028;-63
2023/10/09 16:10:17;;;;;;;11.32;7.30;;;;;;;;;;5092206;28;20281;-63
2023/10/09 16:12:43;;;;;;;8.47;6.33;;;;;;;;;;5092752;28;20031;-64
2023/10/09 16:15:09;;;;;;;12.02;7.10;;;;;;;;;;5092145;28;20274;-64
2023/10/09 16:17:34;;;;;;;10.63;7.50;;;;;;;;;;5084122;28;20016;-64
2023/10/09 16:20:01;;;;;;;14.18;7.13;;;;;;;;;;5091052;28;20065;-64
2023/10/09 16:22:28;;;;;;;11.13;7.00;;;;;;;;;;5085680;28;20111;-64
2023/10/09 16:24:55;;;;;;;12.15;7.40;;;;;;;;;;5092165;28;20035;-64
2023/10/09 16:27:23;;;;;;;10.32;6.45;;;;;;;;;;5084324;28;20039;-64
2023/10/09 16:29:50;;;;;;;10.35;7.28;;;;;;;;;;5092437;28;20062;-62
2023/10/09 16:32:15;;;;;;;12.18;6.70;;;;;;;;;;5085854;28;20287;-62
2023/10/09 16:34:40;;;;;;;11.50;7.32;;;;;;;;;;5091485;28;20024;-62
2023/10/09 16:37:06;;;;;;;12.23;6.93;;;;;;;;;;5091150;28;20038;-62
2023/10/09 16:39:38;;;;;;;12.55;7.07;;;;;;;;;;5091962;28;20111;-62
2023/10/09 16:42:04;;;;;;;11.02;7.00;;;;;;;;;;5090749;28;20020;-62
2023/10/09 16:44:30;;;;;;;11.48;6.55;;;;;;;;;;5087044;28;20119;-62
2023/10/09 16:46:58;;;;;;;10.80;6.63;;;;;;;;;;5085962;28;20111;-64
2023/10/09 16:49:25;;;;;;;10.60;6.93;;;;;;;;;;5083372;28;20386;-64
2023/10/09 16:51:50;;;;;;;12.25;7.60;;;;;;;;;;5088243;28;20032;-63
2023/10/09 16:54:15;;;;;;;12.23;8.38;;;;;;;;;;5088723;28;20024;-64
2023/10/09 16:56:42;;;;;;;14.03;7.47;;;;;;;;;;5091782;28;20039;-64
2023/10/09 16:59:13;;;;;;;13.88;7.13;;;;;;;;;;5091754;28;20617;-64